Terminal Aerodrome Forecast
Issued by NWS

Home | Current Version | Previous Version | Text Only | Print | Product List | Glossary On
Versions: 1 2 3 4 5 6 7 8 9 10 11 12 13 14 15 16 17 18 19 20 21 22 23 24 25 26
962
FTUS42 KGSP 121720
TAFHKY
TAF
KHKY 121720Z 1218/1318 07003KT P6SM FEW035 SCT080 BKN100
      TEMPO 1218/1219 6SM -SN SCT035 OVC070
     FM122300 27007KT P6SM SCT050 BKN200
     FM130900 31010G17KT P6SM FEW250=

USA.gov is the U.S. government's official web portal to all federal, state and local government web resources and services.